createdAt,value
2023-05-05T00:03:44.141Z,3.55
2023-05-05T00:08:00.437Z,3.60
2023-05-05T00:12:16.764Z,3.30
2023-05-05T00:16:33.321Z,3.33
2023-05-05T00:20:49.779Z,3.90
2023-05-05T00:25:07.388Z,3.60
2023-05-05T00:29:23.831Z,2.92
2023-05-05T00:33:40.062Z,3.67
2023-05-05T00:37:56.440Z,3.30
2023-05-05T00:42:12.678Z,3.35
2023-05-05T00:46:30.808Z,4.00
2023-05-05T00:50:47.197Z,3.08
2023-05-05T00:55:04.553Z,3.10
2023-05-05T00:59:21.184Z,2.90
2023-05-05T01:03:39.465Z,3.42
2023-05-05T01:08:23.433Z,3.12
2023-05-05T01:13:02.634Z,3.15
2023-05-05T01:17:21.968Z,3.10
2023-05-05T01:22:03.580Z,3.10
2023-05-05T01:26:48.783Z,3.15
2023-05-05T01:31:13.935Z,2.83
2023-05-05T01:35:33.399Z,3.05
2023-05-05T01:39:54.247Z,3.17
2023-05-05T01:44:13.763Z,2.97
2023-05-05T01:48:31.344Z,3.40
2023-05-05T01:52:47.904Z,3.30
2023-05-05T01:57:05.875Z,3.30
2023-05-05T02:01:27.211Z,3.22
2023-05-05T02:05:44.126Z,3.37
2023-05-05T02:10:02.681Z,3.10
2023-05-05T02:14:20.708Z,3.22
2023-05-05T02:18:37.758Z,3.10
2023-05-05T02:22:54.415Z,3.22
2023-05-05T02:27:11.477Z,3.30
2023-05-05T02:31:28.689Z,3.62
2023-05-05T02:35:47.197Z,3.10
2023-05-05T02:40:08.859Z,3.10
2023-05-05T02:44:27.263Z,3.33
2023-05-05T02:48:46.695Z,3.45
2023-05-05T02:53:03.201Z,3.20
2023-05-05T02:57:21.334Z,3.20
2023-05-05T03:02:13.081Z,3.47
2023-05-05T03:06:29.974Z,3.45
2023-05-05T03:11:05.284Z,2.97
2023-05-05T03:15:26.727Z,3.28
2023-05-05T03:19:44.620Z,2.90
2023-05-05T03:24:01.385Z,3.40
2023-05-05T03:28:18.200Z,3.25
2023-05-05T03:32:34.534Z,2.95
2023-05-05T03:36:51.021Z,3.20
2023-05-05T03:41:07.253Z,3.40
2023-05-05T03:45:23.477Z,3.78
2023-05-05T03:49:39.648Z,3.65
2023-05-05T03:53:55.904Z,3.58
2023-05-05T03:58:12.211Z,3.42
2023-05-05T04:02:28.627Z,3.50
2023-05-05T04:06:44.906Z,3.70
2023-05-05T04:11:02.823Z,3.50
2023-05-05T04:15:19.097Z,3.50
2023-05-05T04:19:35.352Z,3.78
2023-05-05T04:23:51.535Z,3.50
2023-05-05T04:28:07.917Z,3.95
2023-05-05T04:32:24.288Z,3.70
2023-05-05T04:36:40.694Z,3.83
2023-05-05T04:40:56.932Z,3.60
2023-05-05T04:45:13.534Z,4.20
2023-05-05T04:49:33.129Z,4.00
2023-05-05T04:53:49.374Z,3.72
2023-05-05T04:58:05.747Z,3.25
2023-05-05T05:02:22.149Z,3.12
2023-05-05T05:06:38.449Z,3.37
2023-05-05T05:10:54.763Z,3.22
2023-05-05T05:15:13.192Z,3.85
2023-05-05T05:19:30.025Z,3.85
2023-05-05T05:23:46.352Z,3.53
2023-05-05T05:28:10.301Z,3.08
2023-05-05T05:32:27.373Z,4.12
2023-05-05T05:36:43.548Z,3.65
2023-05-05T05:40:59.919Z,5.75
2023-05-05T05:45:16.324Z,5.30
2023-05-05T05:49:33.640Z,4.25
2023-05-05T05:53:49.958Z,4.03
2023-05-05T05:58:10.080Z,5.00
2023-05-05T06:02:27.509Z,4.53
2023-05-05T06:06:43.867Z,4.32
2023-05-05T06:11:00.843Z,3.37
2023-05-05T06:15:17.377Z,3.58
2023-05-05T06:19:34.727Z,3.10
2023-05-05T06:23:51.204Z,3.60
2023-05-05T06:28:07.463Z,3.42
2023-05-05T06:32:23.790Z,4.32
2023-05-05T06:36:40.057Z,4.72
2023-05-05T06:40:58.692Z,3.42
2023-05-05T06:45:15.178Z,3.25
2023-05-05T06:49:31.507Z,5.10
2023-05-05T06:53:47.838Z,3.55
2023-05-05T06:58:04.125Z,5.28
2023-05-05T07:02:20.304Z,3.65
2023-05-05T07:06:36.509Z,4.50
2023-05-05T07:10:52.719Z,3.40
2023-05-05T07:15:23.365Z,3.47
2023-05-05T07:19:44.399Z,2.45
2023-05-05T07:24:01.377Z,3.12
2023-05-05T07:28:18.019Z,2.53
2023-05-05T07:32:34.642Z,2.45
2023-05-05T07:36:51.069Z,2.72
2023-05-05T07:41:07.364Z,2.80
2023-05-05T07:45:23.644Z,2.42
2023-05-05T07:49:39.864Z,2.87
2023-05-05T07:53:56.670Z,3.10
2023-05-05T07:58:13.048Z,2.75
2023-05-05T08:02:29.465Z,3.03
2023-05-05T08:06:45.888Z,2.80
2023-05-05T08:11:02.521Z,3.35
2023-05-05T08:15:18.841Z,4.43
2023-05-05T08:19:35.155Z,3.70
2023-05-05T08:23:51.330Z,3.80
2023-05-05T08:28:07.515Z,3.22
2023-05-05T08:32:23.824Z,3.10
2023-05-05T08:36:40.053Z,2.62
2023-05-05T08:40:56.455Z,2.78
2023-05-05T08:45:13.206Z,2.83
2023-05-05T08:49:40.569Z,3.10
2023-05-05T08:54:01.021Z,3.22
2023-05-05T08:58:20.493Z,3.10
2023-05-05T09:02:37.363Z,3.00
2023-05-05T09:06:53.739Z,2.62
2023-05-05T09:11:09.925Z,2.50
2023-05-05T09:15:28.485Z,3.25
2023-05-05T09:20:04.947Z,2.30
2023-05-05T09:24:21.340Z,2.62
2023-05-05T09:28:37.780Z,2.80
2023-05-05T09:32:55.784Z,2.70
2023-05-05T09:37:12.000Z,2.60
2023-05-05T09:41:38.730Z,2.75
2023-05-05T09:46:10.000Z,2.20
2023-05-05T09:50:26.332Z,2.17
2023-05-05T09:54:43.895Z,2.25
2023-05-05T09:59:09.722Z,2.60
2023-05-05T10:03:26.718Z,2.28
2023-05-05T10:07:47.801Z,2.30
2023-05-05T10:12:05.152Z,2.12
2023-05-05T10:16:21.966Z,2.28
2023-05-05T10:20:38.977Z,2.10
2023-05-05T10:25:12.860Z,2.33
2023-05-05T10:29:47.576Z,2.00
2023-05-05T10:34:04.980Z,2.25
2023-05-05T10:38:24.708Z,2.03
2023-05-05T10:42:42.575Z,2.35
2023-05-05T10:46:59.517Z,2.20
2023-05-05T10:51:39.887Z,2.17
2023-05-05T10:56:11.953Z,2.12
2023-05-05T11:00:40.462Z,2.22
2023-05-05T11:05:22.853Z,2.20
2023-05-05T11:09:54.723Z,2.30
2023-05-05T11:14:22.642Z,2.33
2023-05-05T11:18:40.902Z,2.03
2023-05-05T11:23:03.835Z,2.35
2023-05-05T11:31:36.159Z,2.55
2023-05-05T11:36:05.022Z,2.10
2023-05-05T11:40:30.092Z,2.55
2023-05-05T11:44:46.526Z,2.58
2023-05-05T11:49:02.752Z,2.35
2023-05-05T11:53:20.469Z,2.25
2023-05-05T11:57:36.765Z,2.03
2023-05-05T12:01:53.332Z,2.20
2023-05-05T12:06:09.629Z,1.95
2023-05-05T12:10:26.027Z,2.30
2023-05-05T12:14:53.337Z,2.58
2023-05-05T12:19:11.990Z,2.33
2023-05-05T12:23:30.272Z,2.10
2023-05-05T12:27:56.074Z,2.92
2023-05-05T12:32:24.031Z,2.90
2023-05-05T12:36:40.342Z,2.95
2023-05-05T12:40:56.741Z,2.78
2023-05-05T12:45:20.216Z,2.72
2023-05-05T12:49:52.205Z,2.80
2023-05-05T12:54:10.932Z,2.60
2023-05-05T12:58:28.159Z,2.53
2023-05-05T13:02:44.530Z,2.30
2023-05-05T13:07:10.906Z,2.37
2023-05-05T13:11:27.499Z,2.80
2023-05-05T13:15:43.820Z,2.78
2023-05-05T13:20:00.121Z,2.28
2023-05-05T13:28:36.231Z,2.30
2023-05-05T13:32:52.495Z,2.40
2023-05-05T13:37:08.944Z,2.22
2023-05-05T13:41:25.159Z,2.40
2023-05-05T13:45:41.998Z,2.00
2023-05-05T13:49:58.336Z,1.98
2023-05-05T13:54:14.572Z,2.28
2023-05-05T13:58:30.802Z,2.53
2023-05-05T14:02:48.273Z,3.35
2023-05-05T14:07:05.082Z,2.50
2023-05-05T14:11:21.649Z,2.35
2023-05-05T14:15:37.986Z,2.20
2023-05-05T14:19:54.295Z,2.47
2023-05-05T14:24:10.577Z,2.35
2023-05-05T14:28:26.958Z,2.25
2023-05-05T14:32:43.265Z,2.30
2023-05-05T14:36:59.589Z,2.22
2023-05-05T14:41:15.854Z,2.30
2023-05-05T14:45:32.920Z,2.12
2023-05-05T14:49:49.193Z,2.15
2023-05-05T14:54:11.720Z,2.15
2023-05-05T14:58:33.706Z,1.90
2023-05-05T15:02:50.007Z,2.00
2023-05-05T15:07:06.401Z,2.03
2023-05-05T15:11:22.624Z,2.10
2023-05-05T15:15:39.008Z,2.03
2023-05-05T15:19:56.215Z,2.05
2023-05-05T15:24:12.589Z,2.20
2023-05-05T15:28:28.746Z,2.17
2023-05-05T15:32:45.095Z,2.10
2023-05-05T15:37:01.426Z,1.83
2023-05-05T15:41:17.640Z,1.92
2023-05-05T15:45:34.773Z,2.00
2023-05-05T15:49:52.591Z,2.20
2023-05-05T15:54:08.860Z,1.98
2023-05-05T15:58:25.129Z,1.92
2023-05-05T16:02:41.458Z,2.00
2023-05-05T16:06:58.398Z,1.90
2023-05-05T16:11:14.712Z,2.15
2023-05-05T16:15:32.045Z,2.30
2023-05-05T16:19:48.387Z,2.30
2023-05-05T16:24:04.775Z,2.12
2023-05-05T16:28:21.212Z,1.92
2023-05-05T16:32:37.519Z,2.47
2023-05-05T16:36:54.076Z,2.92
2023-05-05T16:41:11.453Z,2.12
2023-05-05T16:45:27.808Z,2.30
2023-05-05T16:49:44.243Z,2.53
2023-05-05T16:54:00.523Z,2.30
2023-05-05T16:58:16.845Z,1.87
2023-05-05T17:02:33.453Z,2.35
2023-05-05T17:06:49.814Z,2.33
2023-05-05T17:11:06.074Z,2.20
2023-05-05T17:15:22.506Z,2.28
2023-05-05T17:19:38.789Z,2.22
2023-05-05T17:23:55.176Z,1.95
2023-05-05T17:28:11.652Z,2.03
2023-05-05T17:32:46.808Z,2.33
2023-05-05T17:37:03.215Z,3.00
2023-05-05T17:41:19.913Z,3.00
2023-05-05T17:45:36.468Z,3.17
2023-05-05T17:49:54.292Z,3.00
2023-05-05T17:54:10.608Z,3.35
2023-05-05T17:58:26.934Z,4.22
2023-05-05T18:02:43.492Z,3.83
2023-05-05T18:07:00.212Z,3.70
2023-05-05T18:11:16.606Z,3.72
2023-05-05T18:15:33.077Z,3.55
2023-05-05T18:19:55.364Z,3.78
2023-05-05T18:24:20.147Z,3.70
2023-05-05T18:28:37.811Z,3.40
2023-05-05T18:32:54.155Z,2.72
2023-05-05T18:37:10.832Z,3.25
2023-05-05T18:41:27.279Z,3.05
2023-05-05T18:45:43.772Z,3.08
2023-05-05T18:50:00.182Z,3.00
2023-05-05T18:54:16.429Z,2.83
2023-05-05T18:58:32.904Z,3.62
2023-05-05T19:02:49.233Z,3.05
2023-05-05T19:07:05.827Z,3.30
2023-05-05T19:11:23.772Z,3.78
2023-05-05T19:15:43.564Z,3.15
2023-05-05T19:20:00.720Z,3.20
2023-05-05T19:24:21.102Z,2.83
2023-05-05T19:28:37.388Z,3.37
2023-05-05T19:32:53.796Z,3.42
2023-05-05T19:37:10.607Z,3.50
2023-05-05T19:41:27.049Z,3.58
2023-05-05T19:45:43.426Z,3.00
2023-05-05T19:49:59.862Z,2.75
2023-05-05T19:54:16.660Z,3.03
2023-05-05T19:58:54.616Z,3.20
2023-05-05T20:03:11.271Z,3.33
2023-05-05T20:07:27.626Z,3.17
2023-05-05T20:11:43.846Z,3.60
2023-05-05T20:16:00.600Z,3.45
2023-05-05T20:20:20.218Z,3.53
2023-05-05T20:24:36.764Z,3.40
2023-05-05T20:28:53.157Z,3.67
2023-05-05T20:33:09.403Z,4.00
2023-05-05T20:37:27.293Z,4.30
2023-05-05T20:41:43.720Z,4.12
2023-05-05T20:46:01.353Z,4.10
2023-05-05T20:50:20.862Z,4.15
2023-05-05T20:54:37.215Z,4.07
2023-05-05T20:58:53.428Z,3.90
2023-05-05T21:03:09.820Z,3.80
2023-05-05T21:07:26.152Z,3.70
2023-05-05T21:11:42.739Z,3.33
2023-05-05T21:15:59.060Z,3.97
2023-05-05T21:20:16.312Z,4.18
2023-05-05T21:24:32.572Z,3.87
2023-05-05T21:28:48.812Z,3.60
2023-05-05T21:33:05.176Z,3.83
2023-05-05T21:37:21.361Z,4.10
2023-05-05T21:41:37.771Z,3.37
2023-05-05T21:46:01.336Z,3.72
2023-05-05T21:50:17.576Z,3.45
2023-05-05T21:54:33.787Z,3.47
2023-05-05T21:58:50.061Z,4.82
2023-05-05T22:03:06.320Z,4.68
2023-05-05T22:07:22.651Z,4.80
2023-05-05T22:11:38.861Z,4.43
2023-05-05T22:15:55.212Z,3.65
2023-05-05T22:20:11.783Z,3.75
2023-05-05T22:24:28.125Z,3.58
2023-05-05T22:28:44.302Z,3.45
2023-05-05T22:33:00.656Z,3.62
2023-05-05T22:37:17.354Z,3.83
2023-05-05T22:41:33.536Z,3.92
2023-05-05T22:45:50.121Z,3.87
2023-05-05T22:50:08.006Z,3.90
2023-05-05T22:54:24.371Z,4.10
2023-05-05T22:58:40.898Z,3.33
2023-05-05T23:02:57.167Z,3.78
2023-05-05T23:07:13.784Z,3.65
2023-05-05T23:11:29.973Z,3.72
2023-05-05T23:15:46.352Z,3.95
2023-05-05T23:20:02.908Z,4.40
2023-05-05T23:24:19.323Z,4.22
2023-05-05T23:28:35.551Z,3.53
2023-05-05T23:32:52.020Z,3.70
2023-05-05T23:37:08.293Z,4.00
2023-05-05T23:41:24.762Z,3.92
2023-05-05T23:45:41.180Z,3.72
2023-05-05T23:49:57.391Z,4.30
2023-05-05T23:54:13.650Z,3.62
2023-05-05T23:58:30.049Z,3.58
